• Join FlightAware (Why Join?)
  • Login
  • US Flag 
02:53PM EST


 

Airport Tracker/Info


-or-


 

Live Flight TrackerFlight Track Log ✈ UPS1303 ✈ 21-May-2013 ✈ KATL - KSDF

Flight Track Log - Related Links

Times and Time Zones

All times are in EDT time to prevent confusion due to time zone crossing. See the UPS1303 flight status page for this flight to view local times or setup timezone preferences in your user account.

Time Position Orientation Groundspeed Altitude Reporting Facility
EDT Latitude Longitude Course Direction KTS MPH feet Rate Location/Type
12:01AM 33.6667 -84.3500 345° North 237 273 3,800  Level Atlanta TRACON
12:07AM 34.1760 -84.5155 324° Northwest 460 529 21,800 2,760 Climbing FlightAware ADS-B
12:08AM 34.2273 -84.5605 324° Northwest 459 528 22,900 1,680 Climbing FlightAware ADS-B
12:08AM 34.2840 -84.6099 324° Northwest 462 532 23,600 1,680 Climbing FlightAware ADS-B
12:09AM 34.3375 -84.6572 324° Northwest 471 542 24,700 1,980 Climbing FlightAware ADS-B
12:09AM 34.3925 -84.7048 324° Northwest 480 552 25,700 1,920 Climbing FlightAware ADS-B
12:10AM 34.4487 -84.7551 324° Northwest 490 564 26,700 1,980 Climbing FlightAware ADS-B
12:10AM 34.4962 -84.7980 323° Northwest 493 567 27,600 2,460 Climbing FlightAware ADS-B
12:11AM 34.5512 -84.8492 323° Northwest 487 560 29,000 2,700 Climbing FlightAware ADS-B
12:11AM 34.6054 -84.9012 322° Northwest 481 554 30,400 2,460 Climbing FlightAware ADS-B
12:12AM 34.6589 -84.9533 321° Northwest 480 552 31,600 1,440 Climbing FlightAware ADS-B
12:12AM 34.7239 -85.0045 327° Northwest 486 559 32,000 480 Climbing FlightAware ADS-B
12:13AM 34.7465 -85.0135 342° North 494 568 32,000  Level FlightAware ADS-B
12:13AM 34.7827 -85.0210 350° North 497 572 32,000  Level FlightAware ADS-B
12:13AM 34.8160 -85.0224 358° North 500 575 32,000  Level FlightAware ADS-B
12:14AM 34.8896 -85.0192 North 504 580 32,000  Level FlightAware ADS-B
12:14AM 34.9596 -85.0160 North 508 585 32,000  Level FlightAware ADS-B
12:15AM 35.0468 -85.0132 North 510 587 32,000  Level FlightAware ADS-B
12:16AM 35.1801 -85.0099 North 506 582 32,000  Level FlightAware ADS-B
12:16AM 35.2595 -85.0081 North 507 583 32,000  Level FlightAware ADS-B
12:17AM 35.3646 -85.0057 North 508 585 32,000  Level FlightAware ADS-B
12:18AM 35.4358 -85.0041 North 510 587 32,000  Level FlightAware ADS-B
12:18AM 35.5078 -85.0025 North 509 586 32,000  Level FlightAware ADS-B
12:19AM 35.5785 -85.0009 North 508 585 32,000  Level FlightAware ADS-B
12:19AM 35.6494 -84.9993 North 508 585 32,000  Level FlightAware ADS-B
12:20AM 35.7212 -84.9976 North 510 587 32,000 -240 Level FlightAware ADS-B
12:20AM 35.7924 -84.9960 North 512 589 31,800 -600 Descending FlightAware ADS-B
12:21AM 35.8640 -84.9942 North 514 592 31,400 -720 Descending FlightAware ADS-B
12:21AM 35.9356 -84.9925 North 515 593 31,100 -720 Descending FlightAware ADS-B
12:22AM 36.0073 -84.9911 North 514 592 30,700 -720 Descending FlightAware ADS-B
12:22AM 36.0795 -84.9895 North 514 592 30,400 -720 Descending FlightAware ADS-B
12:23AM 36.1524 -84.9878 North 514 592 30,000 -420 Descending FlightAware ADS-B
12:23AM 36.2246 -84.9862 North 517 595 30,000  Level FlightAware ADS-B
12:24AM 36.3049 -84.9844 North 517 595 30,000  Level FlightAware ADS-B
12:24AM 36.3789 -84.9827 North 518 596 30,000  Level FlightAware ADS-B
12:25AM 36.4517 -84.9809 North 518 596 30,000 -120 Level FlightAware ADS-B
12:25AM 36.5251 -84.9794 North 519 597 29,900 -540 Descending FlightAware ADS-B
12:26AM 36.5974 -84.9776 North 520 598 29,500 -840 Descending FlightAware ADS-B
12:26AM 36.6823 -84.9757 North 521 600 29,000 -1,200 Descending FlightAware ADS-B
12:27AM 36.7556 -84.9742 North 520 598 28,200 -1,920 Descending FlightAware ADS-B
12:27AM 36.8292 -84.9721 North 525 604 27,100 -2,820 Descending FlightAware ADS-B
12:28AM 36.9045 -84.9702 North 521 600 25,300 -3,300 Descending FlightAware ADS-B
12:28AM 36.9781 -84.9687 North 508 585 23,700 -3,120 Descending FlightAware ADS-B
12:29AM 37.0514 -84.9671 North 496 571 22,100 -2,940 Descending FlightAware ADS-B
12:29AM 37.1220 -84.9653 North 483 556 20,700 -2,760 Descending FlightAware ADS-B
12:30AM 37.1900 -84.9637 North 472 543 19,300 -2,700 Descending FlightAware ADS-B
12:31AM 37.3037 -84.9612 North 466 536 17,000 -2,400 Descending FlightAware ADS-B
12:32AM 37.3872 -84.9589 North 463 533 15,200 -2,520 Descending Indianapolis Center
12:33AM 37.5131 -84.9547 North 453 521 12,400 -2,040 Descending Indianapolis Center
12:34AM 37.6347 -84.9589 358° North 441 507 11,100 -1,020 Descending Indianapolis Center
12:35AM 37.7239 -85.0464 322° Northwest 418 481 10,400 -600 Descending Indianapolis Center
12:36AM 37.8019 -85.1572 312° West 368 423 9,900 -600 Descending Indianapolis Center
12:37AM 37.8336 -85.2508 293° West 298 343 9,200 -1,020 Descending Indianapolis Center
12:38AM 37.8614 -85.3314 294° West 287 330 7,900 -1,140 Descending Indianapolis Center
12:39AM 37.8947 -85.4228 295° West 285 328 6,900 -480 Descending Indianapolis Center
12:40AM 37.9269 -85.5131 294° West 283 326 7,000  Climbing Indianapolis Center
12:41AM 37.9581 -85.6042 293° West 281 323 7,000 -120 Level Indianapolis Center
12:42AM 37.9961 -85.6894 300° West 279 321 6,800 -600 Descending Indianapolis Center
12:43AM 38.0408 -85.7719 305° West 281 323 5,900 -420 Descending Indianapolis Center
12:44AM 38.0972 -85.8325 320° Northwest 282 325 6,000 -420 Climbing Indianapolis Center
12:45AM 38.1750 -85.8544 347° North 246 283 5,100 -600 Descending Indianapolis Center
12:46AM 38.2381 -85.8717 348° North 238 274 4,900 -600 Descending Indianapolis Center
12:47AM 38.3019 -85.8861 350° North 234 269 4,000 -420 Descending Indianapolis Center
12:50AM 38.5130 -85.9040 350° North 232 267 3,100 -300 Descending FlightAware
12:51AM 38.5140 -85.8930 83° East 229 264 3,100  Level FlightAware
12:51AM 38.5010 -85.8590 116° Southeast 204 235 3,100  Level FlightAware
12:52AM 38.4790 -85.8340 138° Southeast 187 215 3,100  Level FlightAware
12:52AM 38.4530 -85.8370 185° South 173 199 3,100  Level FlightAware
12:52AM 38.4370 -85.8320 166° South 173 199 3,100  Level FlightAware
12:53AM 38.4140 -85.8240 165° South 170 196 3,100  Level FlightAware
12:53AM 38.3910 -85.8160 165° South 170 196 3,100  Level FlightAware
12:54AM 38.3750 -85.8110 166° South 171 197 3,100  Level FlightAware
12:54AM 38.3480 -85.8020 165° South 171 197 3,100  Level FlightAware
12:55AM 38.3370 -85.7980 164° South 172 198 3,100  Level FlightAware
12:55AM 38.3180 -85.7920 166° South 171 197 3,100 -180 Level FlightAware
12:55AM 38.3060 -85.7880 165° South 172 198 3,000 -720 Descending FlightAware
12:56AM 38.2830 -85.7810 167° South 170 196 2,600 -900 Descending FlightAware
12:56AM 38.2750 -85.7780 164° South 166 191 2,400 -900 Descending FlightAware
12:56AM 38.2550 -85.7710 165° South 141 162 2,000 -720 Descending FlightAware
12:57AM 38.2370 -85.7650 165° South 136 157 1,700 -780 Descending FlightAware
12:57AM 38.2210 -85.7600 166° South 138 159 1,300 -780 Descending FlightAware
12:58AM 38.2020 -85.7540 166° South 140 161 1,000 -720 Descending FlightAware
12:58AM 38.1830 -85.7470 164° South 142 163 600 -840 Descending FlightAware